Triumph — WDC9555 — position and weather

sailwx.info

Track history (hours):
 
Tides and Currents Weather Stations Pressure Air Temp Water Temp Dewpoint Dewpoint Depression Visibility Wind Speed Wind Dir Waves Ship Positions

Triumph

Owner: WESTERN TOWBOAT CO, SEATTLE, WA. More information available from US FCC via Universal Licensing System and Coast Guard Vessel Documentation Center.

Last reported at 2015-May-28 13:33 UTC. Time now 2015-May-28 14:13 UTC.
Position N 45°37' W 122°39'.

Length 24 m; draft 3 m.

Type: Tow > 200 m length. MMSI: 367103880.

Date/timePositionNaut miles runAvg speedWind from/ knotsBaromVisibWave heightAir tempDewpointWater temp
2015-May-28 13:33N 45°37' W 122°39'0 0.0
2015-May-28 12:33N 45°37' W 122°39'0 0.0
2015-May-28 11:33N 45°37' W 122°39'0 0.0
2015-May-28 10:33N 45°37' W 122°39'0 0.0
2015-May-28 09:33N 45°37' W 122°39'0 0.0
2015-May-28 08:33N 45°37' W 122°39'0 0.0
2015-May-28 07:33N 45°37' W 122°39'0 0.0
2015-May-28 06:29N 45°37' W 122°39'0 0.0
2015-May-28 05:33N 45°37' W 122°39'0 0.0
2015-May-28 04:33N 45°37' W 122°39'0 0.0
2015-May-28 03:33N 45°37' W 122°39'0 0.0
2015-May-28 02:33N 45°37' W 122°39'0 0.0
2015-May-28 01:33N 45°37' W 122°39'0 0.0
2015-May-28 00:33N 45°37' W 122°39'0 0.0
2015-May-27 23:33N 45°37' W 122°39'0 0.0
2015-May-27 22:33N 45°37' W 122°39'0 0.0
2015-May-27 21:33N 45°37' W 122°39'0 0.0
2015-May-27 20:33N 45°37' W 122°39'0 0.0
2015-May-27 19:32N 45°37' W 122°39'0 0.0
2015-May-27 18:32N 45°37' W 122°39'0 0.0
2015-May-27 17:33N 45°37' W 122°39'0 0.0
2015-May-27 16:32N 45°37' W 122°39'0 0.0
2015-May-27 15:33N 45°37' W 122°39'0 0.0
2015-May-27 14:33N 45°37' W 122°39'0 0.0
2015-May-27 13:33N 45°37' W 122°39'2 2.0
2015-May-27 12:33N 45°38' W 122°41'3 2.6
2015-May-27 11:33N 45°39' W 122°45'6 6.3
2015-May-27 10:33N 45°45' W 122°46'7 7.0
2015-May-27 09:33N 45°52' W 122°47'7 7.2
2015-May-27 08:33N 45°59' W 122°50'7 7.6
2015-May-27 07:33N 46°06' W 122°55'8 7.7
2015-May-27 06:33N 46°10' W 123°05'5 5.4
2015-May-27 05:33N 46°10' W 123°12'6 6.2
2015-May-27 04:33N 46°09' W 123°21'7 7.0
2015-May-27 03:33N 46°15' W 123°26'7 6.9
2015-May-27 02:33N 46°15' W 123°36'8 7.9
2015-May-27 01:33N 46°13' W 123°47'7 7.0
2015-May-27 00:33N 46°13' W 123°57'6 6.3
2015-May-26 23:33N 46°15' W 124°06'6 5.8
2015-May-26 22:33N 46°12' W 124°13'5 5.3
2015-May-26 21:33N 46°14' W 124°21'6 5.9
2015-May-26 20:33N 46°15' W 124°29'5 5.1
2015-May-26 19:33N 46°20' W 124°31'6 5.8
2015-May-26 18:33N 46°26' W 124°31'6 5.9
2015-May-26 17:33N 46°32' W 124°33'6 6.4
2015-May-26 16:33N 46°38' W 124°35'7 7.2
2015-May-26 15:33N 46°44' W 124°39'8 7.4
2015-May-26 14:32N 46°52' W 124°43'88 4.0
2015-May-25 16:29N 48°12' W 123°51'5 6.3
2015-May-25 15:46N 48°12' W 123°44'1 6.2
2015-May-25 15:33N 48°12' W 123°42'6 6.1
2015-May-25 14:33N 48°12' W 123°33'7 6.4
2015-May-25 13:31N 48°12' W 123°23'4 6.8
2015-May-25 13:00N 48°12' W 123°17'4 7.3
2015-May-25 12:28N 48°12' W 123°12'7 7.8
2015-May-25 11:33N 48°12' W 123°01'18 7.3
2015-May-25 09:04N 48°03' W 122°38'4 8.0
2015-May-25 08:31N 47°59' W 122°35'7 7.3
2015-May-25 07:33N 47°54' W 122°28'1 7.3
2015-May-25 07:21N 47°52' W 122°28'6 7.1
2015-May-25 06:33N 47°47' W 122°26'0 6.5
2015-May-25 06:30N 47°47' W 122°25'3 7.4
2015-May-25 06:10N 47°44' W 122°26'4 6.7
2015-May-25 05:33N 47°40' W 122°27'6 5.3
2015-May-25 04:29N 47°35' W 122°22'0 0.0
2015-May-25 04:24N 47°35' W 122°22'1 0.9
2015-May-25 03:33N 47°35' W 122°22'0 6.5
2015-May-25 03:29N 47°34' W 122°21'0 0.4
2015-May-25 02:31N 47°34' W 122°21'0 0.1
2015-May-25 02:28N 47°34' W 122°21'0 0.0
2015-May-25 01:33N 47°34' W 122°21'0 0.0
2015-May-25 01:28N 47°34' W 122°21'0 0.0
2015-May-25 00:33N 47°34' W 122°21'0 0.0
2015-May-25 00:33N 47°34' W 122°21'0 0.0
2015-May-24 00:34N 47°34' W 122°21'0 0.2
2015-May-24 00:32N 47°34' W 122°21'2 1.6
2015-May-23 23:34N 47°35' W 122°22'0 0.9
2015-May-23 23:31N 47°35' W 122°22'3 3.2
2015-May-23 22:33N 47°38' W 122°25'1 6.7
2015-May-23 22:25N 47°38' W 122°26'5 5.8
2015-May-23 21:33N 47°43' W 122°27'1 6.2
2015-May-23 21:25N 47°44' W 122°27'5 6.4
2015-May-23 20:33N 47°50' W 122°28'0 6.2
2015-May-23 20:29N 47°50' W 122°28'6 6.0
2015-May-23 19:33N 47°55' W 122°31'5 4.8
2015-May-23 18:32N 47°59' W 122°36'6 5.3
2015-May-23 17:19N 48°05' W 122°40'3 5.5
2015-May-23 16:42N 48°08' W 122°42'1 6.0
2015-May-23 16:30N 48°08' W 122°43'8 6.7
2015-May-23 15:20N 48°16' W 122°48'6 7.4
2015-May-23 14:32N 48°22' W 122°46'7 7.3
2015-May-23 13:32N 48°29' W 122°45'7 7.7
2015-May-23 12:35N 48°36' W 122°45'0 8.5
2015-May-23 12:33N 48°36' W 122°45'7 7.4
2015-May-23 11:33N 48°44' W 122°46'7 7.3
2015-May-23 10:33N 48°48' W 122°55'8 7.6
2015-May-23 09:33N 48°52' W 123°04'8 7.7
2015-May-23 08:33N 48°57' W 123°13'7 7.4
2015-May-23 07:33N 49°03' W 123°20'6 6.0
2015-May-23 06:33N 49°08' W 123°14'6 6.1
2015-May-23 05:33N 49°07' W 123°05'2 2.2
2015-May-23 04:33N 49°09' W 123°02'0 0.0
2015-May-23 03:33N 49°09' W 123°02'0 0.0
2015-May-23 02:33N 49°09' W 123°02'0 0.0
2015-May-23 01:33N 49°09' W 123°02'0 0.0
2015-May-23 00:33N 49°09' W 123°02'0 0.0
2015-May-22 23:33N 49°09' W 123°02'0 0.0
2015-May-22 22:33N 49°09' W 123°02'0 0.0
2015-May-22 21:33N 49°09' W 123°02'0 0.0
2015-May-22 20:33N 49°09' W 123°02'0 0.0
2015-May-22 19:33N 49°09' W 123°02'0 0.0
2015-May-22 18:33N 49°09' W 123°02'0 0.0
2015-May-22 17:33N 49°09' W 123°02'0 0.0
2015-May-22 16:33N 49°09' W 123°02'0 0.0
2015-May-22 15:33N 49°09' W 123°02'0 0.0
2015-May-22 14:33N 49°09' W 123°02'0 0.0
2015-May-22 13:33N 49°09' W 123°02'0 0.4
2015-May-22 12:33N 49°09' W 123°02'5 5.4
2015-May-22 11:33N 49°07' W 123°10'5 5.0
2015-May-22 10:33N 49°06' W 123°18'6 5.6
2015-May-22 09:33N 49°01' W 123°15'9 8.9
2015-May-22 08:33N 48°55' W 123°05'9 9.4
2015-May-22 07:33N 48°49' W 122°54'9 9.2
2015-May-22 06:33N 48°43' W 122°44'9 8.8
2015-May-22 05:33N 48°34' W 122°45'19 9.5
2015-May-22 03:32N 48°15' W 122°48'17 5.7
2015-May-22 00:31N 47°60' W 122°36'3 6.5
2015-May-22 00:07N 47°58' W 122°33'4 7.1
2015-May-21 23:33N 47°55' W 122°29'0 8.3
2015-May-21 23:31N 47°55' W 122°29'9 8.9
2015-May-21 22:33N 47°46' W 122°26'0 8.9
2015-May-21 22:30N 47°46' W 122°26'8 8.9
2015-May-21 21:33N 47°37' W 122°25'1 9.4
2015-May-21 21:30N 47°37' W 122°25'5 5.0
2015-May-21 20:33N 47°33' W 122°21'0 0.0
2015-May-21 19:33N 47°33' W 122°21'1 1.7
2015-May-21 19:03N 47°34' W 122°21'0 0.0
2015-May-21 18:30N 47°34' W 122°21'0 0.0
2015-May-21 18:28N 47°34' W 122°21'0 0.0
2015-May-19 23:51N 47°34' W 122°21'0 1.6
2015-May-19 23:33N 47°33' W 122°21'0 0.3
2015-May-19 23:32N 47°33' W 122°21'2 2.5
2015-May-19 22:33N 47°36' W 122°22'0 0.2
2015-May-19 22:31N 47°36' W 122°22'1 0.6
2015-May-19 21:33N 47°36' W 122°22'6 6.3
2015-May-19 20:33N 47°41' W 122°28'7 7.0
2015-May-19 19:33N 47°48' W 122°28'7 6.5
2015-May-19 18:33N 47°54' W 122°30'5 4.6
2015-May-19 17:32N 47°58' W 122°35'3 3.3
2015-May-19 16:33N 48°00' W 122°38'8 3.4
2015-May-19 14:12N 48°08' W 122°42'3 5.1
2015-May-19 13:30N 48°10' W 122°46'12 6.2
2015-May-19 11:33N 48°22' W 122°45'6 6.2
2015-May-19 10:33N 48°28' W 122°45'6 6.5
2015-May-19 09:33N 48°35' W 122°45'7 6.9
2015-May-19 08:33N 48°42' W 122°44'7 7.2
2015-May-19 07:33N 48°47' W 122°52'7 7.4
2015-May-19 06:33N 48°51' W 123°01'8 7.8
2015-May-19 05:33N 48°56' W 123°10'8 8.0
2015-May-19 04:32N 49°02' W 123°19'6 5.9
2015-May-19 03:33N 49°07' W 123°16'6 5.9
2015-May-19 02:33N 49°07' W 123°07'4 4.2
2015-May-19 01:33N 49°09' W 123°02'0 0.1
2015-May-19 00:34N 49°09' W 123°02'0 0.1
2015-May-18 23:29N 49°09' W 123°02'0 0.0
2015-May-18 22:29N 49°09' W 123°02'0 0.0
2015-May-18 21:32N 49°09' W 123°02'0 0.0
2015-May-18 20:32N 49°09' W 123°02'0 0.0
2015-May-18 18:33N 49°09' W 123°02'0 0.0
2015-May-18 15:33N 49°09' W 123°02'  
Track history (hours):
 
Tides and Currents Weather Stations Pressure Air Temp Water Temp Dewpoint Dewpoint Depression Visibility Wind Speed Wind Dir Waves Ship Positions

Triumph

Owner: WESTERN TOWBOAT CO, SEATTLE, WA. More information available from US FCC via Universal Licensing System and Coast Guard Vessel Documentation Center.

Last reported at 2015-May-28 13:33 UTC. Time now 2015-May-28 14:13 UTC.
Position N 45°37' W 122°39'.

Length 24 m; draft 3 m.

Type: Tow > 200 m length. MMSI: 367103880.

Date/timePositionNaut miles runAvg speedWind from/ knotsBaromVisibWave heightAir tempDewpointWater temp
2015-May-28 13:33N 45°37' W 122°39'0 0.0
2015-May-28 12:33N 45°37' W 122°39'0 0.0
2015-May-28 11:33N 45°37' W 122°39'0 0.0
2015-May-28 10:33N 45°37' W 122°39'0 0.0
2015-May-28 09:33N 45°37' W 122°39'0 0.0
2015-May-28 08:33N 45°37' W 122°39'0 0.0
2015-May-28 07:33N 45°37' W 122°39'0 0.0
2015-May-28 06:29N 45°37' W 122°39'0 0.0
2015-May-28 05:33N 45°37' W 122°39'0 0.0
2015-May-28 04:33N 45°37' W 122°39'0 0.0
2015-May-28 03:33N 45°37' W 122°39'0 0.0
2015-May-28 02:33N 45°37' W 122°39'0 0.0
2015-May-28 01:33N 45°37' W 122°39'0 0.0
2015-May-28 00:33N 45°37' W 122°39'0 0.0
2015-May-27 23:33N 45°37' W 122°39'0 0.0
2015-May-27 22:33N 45°37' W 122°39'0 0.0
2015-May-27 21:33N 45°37' W 122°39'0 0.0
2015-May-27 20:33N 45°37' W 122°39'0 0.0
2015-May-27 19:32N 45°37' W 122°39'0 0.0
2015-May-27 18:32N 45°37' W 122°39'0 0.0
2015-May-27 17:33N 45°37' W 122°39'0 0.0
2015-May-27 16:32N 45°37' W 122°39'0 0.0
2015-May-27 15:33N 45°37' W 122°39'0 0.0
2015-May-27 14:33N 45°37' W 122°39'0 0.0
2015-May-27 13:33N 45°37' W 122°39'2 2.0
2015-May-27 12:33N 45°38' W 122°41'3 2.6
2015-May-27 11:33N 45°39' W 122°45'6 6.3
2015-May-27 10:33N 45°45' W 122°46'7 7.0
2015-May-27 09:33N 45°52' W 122°47'7 7.2
2015-May-27 08:33N 45°59' W 122°50'7 7.6
2015-May-27 07:33N 46°06' W 122°55'8 7.7
2015-May-27 06:33N 46°10' W 123°05'5 5.4
2015-May-27 05:33N 46°10' W 123°12'6 6.2
2015-May-27 04:33N 46°09' W 123°21'7 7.0
2015-May-27 03:33N 46°15' W 123°26'7 6.9
2015-May-27 02:33N 46°15' W 123°36'8 7.9
2015-May-27 01:33N 46°13' W 123°47'7 7.0
2015-May-27 00:33N 46°13' W 123°57'6 6.3
2015-May-26 23:33N 46°15' W 124°06'6 5.8
2015-May-26 22:33N 46°12' W 124°13'5 5.3
2015-May-26 21:33N 46°14' W 124°21'6 5.9
2015-May-26 20:33N 46°15' W 124°29'5 5.1
2015-May-26 19:33N 46°20' W 124°31'6 5.8
2015-May-26 18:33N 46°26' W 124°31'6 5.9
2015-May-26 17:33N 46°32' W 124°33'6 6.4
2015-May-26 16:33N 46°38' W 124°35'7 7.2
2015-May-26 15:33N 46°44' W 124°39'8 7.4
2015-May-26 14:32N 46°52' W 124°43'88 4.0
2015-May-25 16:29N 48°12' W 123°51'5 6.3
2015-May-25 15:46N 48°12' W 123°44'1 6.2
2015-May-25 15:33N 48°12' W 123°42'6 6.1
2015-May-25 14:33N 48°12' W 123°33'7 6.4
2015-May-25 13:31N 48°12' W 123°23'4 6.8
2015-May-25 13:00N 48°12' W 123°17'4 7.3
2015-May-25 12:28N 48°12' W 123°12'7 7.8
2015-May-25 11:33N 48°12' W 123°01'18 7.3
2015-May-25 09:04N 48°03' W 122°38'4 8.0
2015-May-25 08:31N 47°59' W 122°35'7 7.3
2015-May-25 07:33N 47°54' W 122°28'1 7.3
2015-May-25 07:21N 47°52' W 122°28'6 7.1
2015-May-25 06:33N 47°47' W 122°26'0 6.5
2015-May-25 06:30N 47°47' W 122°25'3 7.4
2015-May-25 06:10N 47°44' W 122°26'4 6.7
2015-May-25 05:33N 47°40' W 122°27'6 5.3
2015-May-25 04:29N 47°35' W 122°22'0 0.0
2015-May-25 04:24N 47°35' W 122°22'1 0.9
2015-May-25 03:33N 47°35' W 122°22'0 6.5
2015-May-25 03:29N 47°34' W 122°21'0 0.4
2015-May-25 02:31N 47°34' W 122°21'0 0.1
2015-May-25 02:28N 47°34' W 122°21'0 0.0
2015-May-25 01:33N 47°34' W 122°21'0 0.0
2015-May-25 01:28N 47°34' W 122°21'0 0.0
2015-May-25 00:33N 47°34' W 122°21'0 0.0
2015-May-25 00:33N 47°34' W 122°21'0 0.0
2015-May-24 00:34N 47°34' W 122°21'0 0.2
2015-May-24 00:32N 47°34' W 122°21'2 1.6
2015-May-23 23:34N 47°35' W 122°22'0 0.9
2015-May-23 23:31N 47°35' W 122°22'3 3.2
2015-May-23 22:33N 47°38' W 122°25'1 6.7
2015-May-23 22:25N 47°38' W 122°26'5 5.8
2015-May-23 21:33N 47°43' W 122°27'1 6.2
2015-May-23 21:25N 47°44' W 122°27'5 6.4
2015-May-23 20:33N 47°50' W 122°28'0 6.2
2015-May-23 20:29N 47°50' W 122°28'6 6.0
2015-May-23 19:33N 47°55' W 122°31'5 4.8
2015-May-23 18:32N 47°59' W 122°36'6 5.3
2015-May-23 17:19N 48°05' W 122°40'3 5.5
2015-May-23 16:42N 48°08' W 122°42'1 6.0
2015-May-23 16:30N 48°08' W 122°43'8 6.7
2015-May-23 15:20N 48°16' W 122°48'6 7.4
2015-May-23 14:32N 48°22' W 122°46'7 7.3
2015-May-23 13:32N 48°29' W 122°45'7 7.7
2015-May-23 12:35N 48°36' W 122°45'0 8.5
2015-May-23 12:33N 48°36' W 122°45'7 7.4
2015-May-23 11:33N 48°44' W 122°46'7 7.3
2015-May-23 10:33N 48°48' W 122°55'8 7.6
2015-May-23 09:33N 48°52' W 123°04'8 7.7
2015-May-23 08:33N 48°57' W 123°13'7 7.4
2015-May-23 07:33N 49°03' W 123°20'6 6.0
2015-May-23 06:33N 49°08' W 123°14'6 6.1
2015-May-23 05:33N 49°07' W 123°05'2 2.2
2015-May-23 04:33N 49°09' W 123°02'0 0.0
2015-May-23 03:33N 49°09' W 123°02'0 0.0
2015-May-23 02:33N 49°09' W 123°02'0 0.0
2015-May-23 01:33N 49°09' W 123°02'0 0.0
2015-May-23 00:33N 49°09' W 123°02'0 0.0
2015-May-22 23:33N 49°09' W 123°02'0 0.0
2015-May-22 22:33N 49°09' W 123°02'0 0.0
2015-May-22 21:33N 49°09' W 123°02'0 0.0
2015-May-22 20:33N 49°09' W 123°02'0 0.0
2015-May-22 19:33N 49°09' W 123°02'0 0.0
2015-May-22 18:33N 49°09' W 123°02'0 0.0
2015-May-22 17:33N 49°09' W 123°02'0 0.0
2015-May-22 16:33N 49°09' W 123°02'0 0.0
2015-May-22 15:33N 49°09' W 123°02'0 0.0
2015-May-22 14:33N 49°09' W 123°02'0 0.0
2015-May-22 13:33N 49°09' W 123°02'0 0.4
2015-May-22 12:33N 49°09' W 123°02'5 5.4
2015-May-22 11:33N 49°07' W 123°10'5 5.0
2015-May-22 10:33N 49°06' W 123°18'6 5.6
2015-May-22 09:33N 49°01' W 123°15'9 8.9
2015-May-22 08:33N 48°55' W 123°05'9 9.4
2015-May-22 07:33N 48°49' W 122°54'9 9.2
2015-May-22 06:33N 48°43' W 122°44'9 8.8
2015-May-22 05:33N 48°34' W 122°45'19 9.5
2015-May-22 03:32N 48°15' W 122°48'17 5.7
2015-May-22 00:31N 47°60' W 122°36'3 6.5
2015-May-22 00:07N 47°58' W 122°33'4 7.1
2015-May-21 23:33N 47°55' W 122°29'0 8.3
2015-May-21 23:31N 47°55' W 122°29'9 8.9
2015-May-21 22:33N 47°46' W 122°26'0 8.9
2015-May-21 22:30N 47°46' W 122°26'8 8.9
2015-May-21 21:33N 47°37' W 122°25'1 9.4
2015-May-21 21:30N 47°37' W 122°25'5 5.0
2015-May-21 20:33N 47°33' W 122°21'0 0.0
2015-May-21 19:33N 47°33' W 122°21'1 1.7
2015-May-21 19:03N 47°34' W 122°21'0 0.0
2015-May-21 18:30N 47°34' W 122°21'0 0.0
2015-May-21 18:28N 47°34' W 122°21'0 0.0
2015-May-19 23:51N 47°34' W 122°21'0 1.6
2015-May-19 23:33N 47°33' W 122°21'0 0.3
2015-May-19 23:32N 47°33' W 122°21'2 2.5
2015-May-19 22:33N 47°36' W 122°22'0 0.2
2015-May-19 22:31N 47°36' W 122°22'1 0.6
2015-May-19 21:33N 47°36' W 122°22'6 6.3
2015-May-19 20:33N 47°41' W 122°28'7 7.0
2015-May-19 19:33N 47°48' W 122°28'7 6.5
2015-May-19 18:33N 47°54' W 122°30'5 4.6
2015-May-19 17:32N 47°58' W 122°35'3 3.3
2015-May-19 16:33N 48°00' W 122°38'8 3.4
2015-May-19 14:12N 48°08' W 122°42'3 5.1
2015-May-19 13:30N 48°10' W 122°46'12 6.2
2015-May-19 11:33N 48°22' W 122°45'6 6.2
2015-May-19 10:33N 48°28' W 122°45'6 6.5
2015-May-19 09:33N 48°35' W 122°45'7 6.9
2015-May-19 08:33N 48°42' W 122°44'7 7.2
2015-May-19 07:33N 48°47' W 122°52'7 7.4
2015-May-19 06:33N 48°51' W 123°01'8 7.8
2015-May-19 05:33N 48°56' W 123°10'8 8.0
2015-May-19 04:32N 49°02' W 123°19'6 5.9
2015-May-19 03:33N 49°07' W 123°16'6 5.9
2015-May-19 02:33N 49°07' W 123°07'4 4.2
2015-May-19 01:33N 49°09' W 123°02'0 0.1
2015-May-19 00:34N 49°09' W 123°02'0 0.1
2015-May-18 23:29N 49°09' W 123°02'0 0.0
2015-May-18 22:29N 49°09' W 123°02'0 0.0
2015-May-18 21:32N 49°09' W 123°02'0 0.0
2015-May-18 20:32N 49°09' W 123°02'0 0.0
2015-May-18 18:33N 49°09' W 123°02'0 0.0
2015-May-18 15:33N 49°09' W 123°02'  

Dump ship's entire track history